createdAt,value
2022-11-05T00:00:44.338Z,91.73
2022-11-05T00:01:44.408Z,92.34
2022-11-05T00:02:44.335Z,92.44
2022-11-05T00:03:44.381Z,92.24
2022-11-05T00:04:44.298Z,93.06
2022-11-05T00:05:44.288Z,92.65
2022-11-05T00:06:44.282Z,92.55
2022-11-05T00:07:44.280Z,92.18
2022-11-05T00:08:44.256Z,92.85
2022-11-05T00:09:44.237Z,93.67
2022-11-05T00:10:44.231Z,93.67
2022-11-05T00:11:44.219Z,93.37
2022-11-05T00:12:44.249Z,93.26
2022-11-05T00:13:44.196Z,93.26
2022-11-05T00:14:44.184Z,93.26
2022-11-05T00:15:44.177Z,93.16
2022-11-05T00:16:44.160Z,93.26
2022-11-05T00:17:44.176Z,93.51
2022-11-05T00:18:44.137Z,93.26
2022-11-05T00:19:44.135Z,93.67
2022-11-05T00:20:44.114Z,93.26
2022-11-05T00:21:44.108Z,93.67
2022-11-05T00:22:44.105Z,93.92
2022-11-05T00:23:44.081Z,93.77
2022-11-05T00:24:44.069Z,93.67
2022-11-05T00:25:44.060Z,93.30
2022-11-05T00:26:44.060Z,93.71
2022-11-05T00:27:44.053Z,93.71
2022-11-05T00:28:44.127Z,92.96
2022-11-05T00:29:44.020Z,92.69
2022-11-05T00:30:44.003Z,93.62
2022-11-05T00:31:43.993Z,93.71
2022-11-05T00:32:43.992Z,93.30
2022-11-05T00:33:43.969Z,93.30
2022-11-05T00:34:43.966Z,93.30
2022-11-05T00:35:43.946Z,93.92
2022-11-05T00:36:43.939Z,93.45
2022-11-05T00:37:49.615Z,93.41
2022-11-05T00:38:44.911Z,93.55
2022-11-05T00:39:43.909Z,93.55
2022-11-05T00:40:43.898Z,93.35
2022-11-05T00:41:43.881Z,93.35
2022-11-05T00:42:43.886Z,93.96
2022-11-05T00:43:43.867Z,93.35
2022-11-05T00:44:43.873Z,93.86
2022-11-05T00:45:43.834Z,93.60
2022-11-05T00:46:43.824Z,93.96
2022-11-05T00:47:43.811Z,94.17
2022-11-05T00:48:43.822Z,94.01
2022-11-05T00:49:43.791Z,94.01
2022-11-05T00:50:43.778Z,94.11
2022-11-05T00:51:43.775Z,93.60
2022-11-05T00:52:43.767Z,94.21
2022-11-05T00:53:43.766Z,93.60
2022-11-05T00:54:43.733Z,94.52
2022-11-05T00:55:43.721Z,94.52
2022-11-05T00:56:43.716Z,94.36
2022-11-05T00:57:43.711Z,94.83
2022-11-05T00:58:43.724Z,94.42
2022-11-05T00:59:43.677Z,94.77
2022-11-05T01:00:43.784Z,94.21
2022-11-05T01:01:43.796Z,94.46
2022-11-05T01:02:43.810Z,94.46
2022-11-05T01:03:47.495Z,94.62
2022-11-05T01:04:44.626Z,94.36
2022-11-05T01:05:43.610Z,94.15
2022-11-05T01:06:43.624Z,94.67
2022-11-05T01:07:43.593Z,94.87
2022-11-05T01:08:43.588Z,94.46
2022-11-05T01:09:43.566Z,94.77
2022-11-05T01:10:43.555Z,94.77
2022-11-05T01:11:43.550Z,94.67
2022-11-05T01:12:43.530Z,94.20
2022-11-05T01:13:43.542Z,94.56
2022-11-05T01:14:43.506Z,94.46
2022-11-05T01:15:43.500Z,94.36
2022-11-05T01:16:43.507Z,94.61
2022-11-05T01:17:43.495Z,94.51
2022-11-05T01:18:43.484Z,94.61
2022-11-05T01:19:43.474Z,94.26
2022-11-05T01:20:43.439Z,94.51
2022-11-05T01:21:43.441Z,94.51
2022-11-05T01:22:43.421Z,94.71
2022-11-05T01:23:43.444Z,94.61
2022-11-05T01:24:43.403Z,94.51
2022-11-05T01:25:43.391Z,94.51
2022-11-05T01:26:43.375Z,94.45
2022-11-05T01:27:43.369Z,94.30
2022-11-05T01:28:43.468Z,94.85
2022-11-05T01:29:43.339Z,94.85
2022-11-05T01:30:43.334Z,94.45
2022-11-05T01:31:43.324Z,94.55
2022-11-05T01:32:43.331Z,94.34
2022-11-05T01:33:43.319Z,94.65
2022-11-05T01:34:43.287Z,94.65
2022-11-05T01:35:43.280Z,94.76
2022-11-05T01:36:43.262Z,94.55
2022-11-05T01:37:43.249Z,94.55
2022-11-05T01:38:43.244Z,94.39
2022-11-05T01:39:43.247Z,94.59
2022-11-05T01:40:43.218Z,94.49
2022-11-05T01:41:43.211Z,94.59
2022-11-05T01:42:43.199Z,94.49
2022-11-05T01:43:43.202Z,94.39
2022-11-05T01:44:43.183Z,95.01
2022-11-05T01:45:43.168Z,95.10
2022-11-05T01:46:43.156Z,95.01
2022-11-05T01:47:43.140Z,95.01
2022-11-05T01:48:43.154Z,95.10
2022-11-05T01:49:43.137Z,95.10
2022-11-05T01:50:43.110Z,94.59
2022-11-05T01:51:43.105Z,94.90
2022-11-05T01:52:43.089Z,94.90
2022-11-05T01:53:43.076Z,94.90
2022-11-05T01:54:43.075Z,95.21
2022-11-05T01:55:43.056Z,95.01
2022-11-05T01:56:43.041Z,95.10
2022-11-05T01:57:43.041Z,95.15
2022-11-05T01:58:43.023Z,95.05
2022-11-05T01:59:43.027Z,95.01
2022-11-05T02:00:43.007Z,95.05
2022-11-05T02:01:43.138Z,94.84
2022-11-05T02:02:43.200Z,94.84
2022-11-05T02:03:42.957Z,95.05
2022-11-05T02:04:42.987Z,95.05
2022-11-05T02:05:42.943Z,95.25
2022-11-05T02:06:42.923Z,95.25
2022-11-05T02:07:42.911Z,95.36
2022-11-05T02:08:42.921Z,95.61
2022-11-05T02:09:42.949Z,95.46
2022-11-05T02:10:42.880Z,96.12
2022-11-05T02:11:42.893Z,95.20
2022-11-05T02:12:42.865Z,95.81
2022-11-05T02:13:42.848Z,95.81
2022-11-05T02:14:42.839Z,95.81
2022-11-05T02:15:42.854Z,96.02
2022-11-05T02:16:42.809Z,96.22
2022-11-05T02:17:42.801Z,96.22
2022-11-05T02:18:42.788Z,95.20
2022-11-05T02:19:42.789Z,96.22
2022-11-05T02:20:44.811Z,95.30
2022-11-05T02:21:43.754Z,94.99
2022-11-05T02:22:42.743Z,95.71
2022-11-05T02:23:42.741Z,95.81
2022-11-05T02:24:42.731Z,95.61
2022-11-05T02:25:42.734Z,95.86
2022-11-05T02:26:42.703Z,95.86
2022-11-05T02:27:42.687Z,95.75
2022-11-05T02:28:42.682Z,95.96
2022-11-05T02:29:42.663Z,95.96
2022-11-05T02:30:42.673Z,95.96
2022-11-05T02:31:42.651Z,95.45
2022-11-05T02:32:42.628Z,95.86
2022-11-05T02:33:42.622Z,96.47
2022-11-05T02:34:42.611Z,96.78
2022-11-05T02:35:42.613Z,96.47
2022-11-05T02:36:42.607Z,96.47
2022-11-05T02:37:42.579Z,96.72
2022-11-05T02:38:42.572Z,97.19
2022-11-05T02:39:42.557Z,97.09
2022-11-05T02:40:42.580Z,96.89
2022-11-05T02:41:42.527Z,97.30
2022-11-05T02:42:42.526Z,97.30
2022-11-05T02:43:42.526Z,97.09
2022-11-05T02:44:42.505Z,97.19
2022-11-05T02:45:42.484Z,97.30
2022-11-05T02:46:42.484Z,96.99
2022-11-05T02:47:42.468Z,97.15
2022-11-05T02:48:42.456Z,97.36
2022-11-05T02:49:42.440Z,97.30
2022-11-05T02:50:42.432Z,97.30
2022-11-05T02:51:42.448Z,97.25
2022-11-05T02:52:42.510Z,97.71
2022-11-05T02:53:42.395Z,97.25
2022-11-05T02:54:42.382Z,97.61
2022-11-05T02:55:42.368Z,97.15
2022-11-05T02:56:42.387Z,97.19
2022-11-05T02:57:42.346Z,97.40
2022-11-05T02:58:42.349Z,96.99
2022-11-05T02:59:42.338Z,97.45
2022-11-05T03:00:42.332Z,96.94
2022-11-05T03:01:42.474Z,97.25
2022-11-05T03:02:42.461Z,97.25
2022-11-05T03:03:42.278Z,97.45
2022-11-05T03:04:42.285Z,97.36
2022-11-05T03:05:42.263Z,97.05
2022-11-05T03:06:42.329Z,97.45
2022-11-05T03:07:42.241Z,97.25
2022-11-05T03:08:42.253Z,96.94
2022-11-05T03:09:42.219Z,97.36
2022-11-05T03:10:42.207Z,97.05
2022-11-05T03:11:42.221Z,97.00
2022-11-05T03:12:42.180Z,97.10
2022-11-05T03:13:42.168Z,96.90
2022-11-05T03:14:42.167Z,96.90
2022-11-05T03:15:42.161Z,97.10
2022-11-05T03:16:42.154Z,96.90
2022-11-05T03:17:42.120Z,97.00
2022-11-05T03:18:42.110Z,96.85
2022-11-05T03:19:42.106Z,97.10
2022-11-05T03:20:42.088Z,97.20
2022-11-05T03:21:42.114Z,97.20
2022-11-05T03:22:42.072Z,97.06
2022-11-05T03:23:42.054Z,97.20
2022-11-05T03:24:42.072Z,97.00
2022-11-05T03:25:42.039Z,97.00
2022-11-05T03:26:42.035Z,96.95
2022-11-05T03:27:42.016Z,96.95
2022-11-05T03:28:42.006Z,96.85
2022-11-05T03:29:41.990Z,97.27
2022-11-05T03:30:41.995Z,96.55
2022-11-05T03:31:41.976Z,96.55
2022-11-05T03:32:41.994Z,96.75
2022-11-05T03:33:41.946Z,97.06
2022-11-05T03:34:41.984Z,97.06
2022-11-05T03:35:41.923Z,96.75
2022-11-05T03:36:41.935Z,97.16
2022-11-05T03:37:41.904Z,96.55
2022-11-05T03:38:41.890Z,96.75
2022-11-05T03:39:41.876Z,96.65
2022-11-05T03:40:41.903Z,96.44
2022-11-05T03:41:41.875Z,96.65
2022-11-05T03:42:41.842Z,96.44
2022-11-05T03:43:41.838Z,96.34
2022-11-05T03:44:41.825Z,96.75
2022-11-05T03:45:41.814Z,96.34
2022-11-05T03:46:41.818Z,96.30
2022-11-05T03:47:41.793Z,96.65
2022-11-05T03:48:41.847Z,96.03
2022-11-05T03:49:41.761Z,95.83
2022-11-05T03:50:41.863Z,95.93
2022-11-05T03:51:41.752Z,95.83
2022-11-05T03:52:41.729Z,96.03
2022-11-05T03:53:41.720Z,95.83
2022-11-05T03:54:41.714Z,95.72
2022-11-05T03:55:41.692Z,95.62
2022-11-05T03:56:41.723Z,95.93
2022-11-05T03:57:41.681Z,95.83
2022-11-05T03:58:41.669Z,95.78
2022-11-05T03:59:41.645Z,95.42
2022-11-05T04:00:41.648Z,95.72
2022-11-05T04:01:41.818Z,95.52
2022-11-05T04:02:41.789Z,95.83
2022-11-05T04:03:41.602Z,95.72
2022-11-05T04:04:41.607Z,95.83
2022-11-05T04:05:41.585Z,95.52
2022-11-05T04:06:41.571Z,95.10
2022-11-05T04:07:41.579Z,95.01
2022-11-05T04:08:41.545Z,95.01
2022-11-05T04:09:41.538Z,95.15
2022-11-05T04:10:41.531Z,95.72
2022-11-05T04:11:41.514Z,95.05
2022-11-05T04:12:41.550Z,95.21
2022-11-05T04:13:41.490Z,95.36
2022-11-05T04:14:41.486Z,95.25
2022-11-05T04:15:41.474Z,95.83
2022-11-05T04:16:41.469Z,96.28
2022-11-05T04:17:41.465Z,95.77
2022-11-05T04:18:41.444Z,96.39
2022-11-05T04:19:41.421Z,95.67
2022-11-05T04:20:41.421Z,96.28
2022-11-05T04:21:41.402Z,95.67
2022-11-05T04:22:41.411Z,96.28
2022-11-05T04:23:41.379Z,95.40
2022-11-05T04:24:41.371Z,95.50
2022-11-05T04:25:41.359Z,95.40
2022-11-05T04:26:41.356Z,95.50
2022-11-05T04:27:41.359Z,95.36
2022-11-05T04:28:41.355Z,95.09
2022-11-05T04:29:41.316Z,95.61
2022-11-05T04:30:41.300Z,95.09
2022-11-05T04:31:41.305Z,95.50
2022-11-05T04:32:41.303Z,95.14
2022-11-05T04:33:41.271Z,95.40
2022-11-05T04:34:41.262Z,95.40
2022-11-05T04:35:41.240Z,95.40
2022-11-05T04:36:41.230Z,95.14
2022-11-05T04:37:41.239Z,95.45
2022-11-05T04:38:41.225Z,95.14
2022-11-05T04:39:41.205Z,95.03
2022-11-05T04:40:41.192Z,95.55
2022-11-05T04:41:41.180Z,95.20
2022-11-05T04:42:41.179Z,95.14
2022-11-05T04:43:41.154Z,95.03
2022-11-05T04:44:41.164Z,95.14
2022-11-05T04:45:41.134Z,94.93
2022-11-05T04:46:41.146Z,95.14
2022-11-05T04:47:41.118Z,95.24
2022-11-05T04:48:41.094Z,95.03
2022-11-05T04:49:41.087Z,95.03
2022-11-05T04:50:41.092Z,95.03
2022-11-05T04:51:41.082Z,95.03
2022-11-05T04:52:41.066Z,95.39
2022-11-05T04:53:41.047Z,95.14
2022-11-05T04:54:41.028Z,95.14
2022-11-05T04:55:41.018Z,95.14
2022-11-05T04:56:41.009Z,95.24
2022-11-05T04:57:41.021Z,95.08
2022-11-05T04:58:40.988Z,95.55
2022-11-05T04:59:40.968Z,95.18
2022-11-05T05:00:41.216Z,95.14
2022-11-05T05:01:41.184Z,95.18
2022-11-05T05:02:40.963Z,95.18
2022-11-05T05:03:40.936Z,95.18
2022-11-05T05:04:40.924Z,95.18
2022-11-05T05:05:40.912Z,95.70
2022-11-05T05:06:40.892Z,95.08
2022-11-05T05:07:40.893Z,95.49
2022-11-05T05:08:40.872Z,95.53
2022-11-05T05:09:40.869Z,95.53
2022-11-05T05:10:40.863Z,95.33
2022-11-05T05:11:40.841Z,96.46
2022-11-05T05:12:40.856Z,95.53
2022-11-05T05:13:40.811Z,95.64
2022-11-05T05:14:40.808Z,95.64
2022-11-05T05:15:40.788Z,95.95
2022-11-05T05:16:40.804Z,95.64
2022-11-05T05:17:40.785Z,96.20
2022-11-05T05:18:45.929Z,96.61
2022-11-05T05:19:41.750Z,96.41
2022-11-05T05:20:40.740Z,95.58
2022-11-05T05:21:40.734Z,95.37
2022-11-05T05:22:40.731Z,95.58
2022-11-05T05:23:40.704Z,95.48
2022-11-05T05:24:40.690Z,95.68
2022-11-05T05:25:40.681Z,95.68
2022-11-05T05:26:40.678Z,95.89
2022-11-05T05:27:40.674Z,96.09
2022-11-05T05:28:40.652Z,95.99
2022-11-05T05:29:40.631Z,96.30
2022-11-05T05:30:40.619Z,96.30
2022-11-05T05:31:40.640Z,95.99
2022-11-05T05:32:40.641Z,96.09
2022-11-05T05:33:40.644Z,95.62
2022-11-05T05:34:40.603Z,95.62
2022-11-05T05:35:40.562Z,96.24
2022-11-05T05:36:40.563Z,95.93
2022-11-05T05:37:40.566Z,96.14
2022-11-05T05:38:40.534Z,96.55
2022-11-05T05:39:40.527Z,96.14
2022-11-05T05:40:40.524Z,96.75
2022-11-05T05:41:40.512Z,96.45
2022-11-05T05:42:43.347Z,96.75
2022-11-05T05:43:40.473Z,96.86
2022-11-05T05:44:40.472Z,96.86
2022-11-05T05:45:40.459Z,96.96
2022-11-05T05:46:40.442Z,96.70
2022-11-05T05:47:40.443Z,96.75
2022-11-05T05:48:40.448Z,96.66
2022-11-05T05:49:40.412Z,96.96
2022-11-05T05:50:40.408Z,96.80
2022-11-05T05:51:40.390Z,97.11
2022-11-05T05:52:40.395Z,97.38
2022-11-05T05:53:40.362Z,97.38
2022-11-05T05:54:42.898Z,97.06
2022-11-05T05:55:40.341Z,97.21
2022-11-05T05:56:40.336Z,97.52
2022-11-05T05:57:40.338Z,97.31
2022-11-05T05:58:40.308Z,97.01
2022-11-05T05:59:40.302Z,97.21
2022-11-05T06:00:40.309Z,97.73
2022-11-05T06:01:40.373Z,97.63
2022-11-05T06:02:40.459Z,97.52
2022-11-05T06:03:40.255Z,97.42
2022-11-05T06:04:40.351Z,97.94
2022-11-05T06:05:40.226Z,98.03
2022-11-05T06:06:40.217Z,98.24
2022-11-05T06:07:40.227Z,98.35
2022-11-05T06:08:40.202Z,98.45
2022-11-05T06:09:40.188Z,98.03
2022-11-05T06:10:40.302Z,98.24
2022-11-05T06:11:40.177Z,98.60
2022-11-05T06:12:40.168Z,98.29
2022-11-05T06:13:40.138Z,98.35
2022-11-05T06:14:40.134Z,98.76
2022-11-05T06:15:40.120Z,98.39
2022-11-05T06:16:40.113Z,98.60
2022-11-05T06:17:40.107Z,98.60
2022-11-05T06:18:40.113Z,98.35
2022-11-05T06:19:40.086Z,99.22
2022-11-05T06:20:40.169Z,98.80
2022-11-05T06:21:40.060Z,98.60
2022-11-05T06:22:40.062Z,98.75
2022-11-05T06:23:40.040Z,98.80
2022-11-05T06:24:40.017Z,99.11
2022-11-05T06:25:41.328Z,99.27
2022-11-05T06:26:39.998Z,98.80
2022-11-05T06:27:39.987Z,98.70
2022-11-05T06:28:39.990Z,99.32
2022-11-05T06:29:39.981Z,99.11
2022-11-05T06:30:39.946Z,99.32
2022-11-05T06:31:39.949Z,98.80
2022-11-05T06:32:39.934Z,98.91
2022-11-05T06:33:39.931Z,99.73
2022-11-05T06:34:39.899Z,99.63
2022-11-05T06:35:39.887Z,99.32
2022-11-05T06:36:39.908Z,99.43
2022-11-05T06:37:39.871Z,99.32
2022-11-05T06:38:39.890Z,99.43
2022-11-05T06:39:39.850Z,99.32
2022-11-05T06:40:39.840Z,99.22
2022-11-05T06:42:03.910Z,99.11
2022-11-05T06:42:40.818Z,99.11
2022-11-05T06:43:39.815Z,99.32
2022-11-05T06:44:39.795Z,99.52
2022-11-05T06:45:39.776Z,99.11
2022-11-05T06:46:43.256Z,99.43
2022-11-05T06:47:40.766Z,99.32
2022-11-05T06:48:39.760Z,99.32
2022-11-05T06:49:39.760Z,99.47
2022-11-05T06:50:39.721Z,99.11
2022-11-05T06:51:39.728Z,99.32
2022-11-05T06:52:41.229Z,99.47
2022-11-05T06:53:39.706Z,99.47
2022-11-05T06:54:39.687Z,99.43
2022-11-05T06:55:39.674Z,99.43
2022-11-05T06:56:39.657Z,99.63
2022-11-05T06:57:39.658Z,99.57
2022-11-05T06:58:39.650Z,99.73
2022-11-05T06:59:39.634Z,99.78
2022-11-05T07:00:39.659Z,99.47
2022-11-05T07:01:39.767Z,99.99
2022-11-05T07:02:39.592Z,99.73
2022-11-05T07:03:39.599Z,99.99
2022-11-05T07:04:39.570Z,99.99
2022-11-05T07:05:39.559Z,99.99
2022-11-05T07:06:39.547Z,99.84
2022-11-05T07:07:39.529Z,99.99
2022-11-05T07:08:39.568Z,99.43
2022-11-05T07:09:39.514Z,99.52
2022-11-05T07:10:39.509Z,99.43
2022-11-05T07:11:39.485Z,99.48
2022-11-05T07:12:39.473Z,99.38
2022-11-05T07:13:39.487Z,99.54
2022-11-05T07:14:39.459Z,99.07
2022-11-05T07:15:39.447Z,99.23
2022-11-05T07:16:39.428Z,99.54
2022-11-05T07:17:39.442Z,99.02
2022-11-05T07:18:39.423Z,99.02
2022-11-05T07:19:39.395Z,99.43
2022-11-05T07:20:39.392Z,99.49
2022-11-05T07:21:39.385Z,99.02
2022-11-05T07:22:39.373Z,98.88
2022-11-05T07:23:39.367Z,99.08
2022-11-05T07:24:39.366Z,98.52
2022-11-05T07:25:39.329Z,99.04
2022-11-05T07:26:39.325Z,98.83
2022-11-05T07:27:39.310Z,98.32
2022-11-05T07:28:39.318Z,98.52
2022-11-05T07:29:39.291Z,97.65
2022-11-05T07:30:39.282Z,97.75
2022-11-05T07:31:39.270Z,97.34
2022-11-05T07:32:39.264Z,97.19
2022-11-05T07:33:39.274Z,97.19
2022-11-05T07:34:39.234Z,96.78
2022-11-05T07:35:39.229Z,96.33
2022-11-05T07:36:39.214Z,96.02
2022-11-05T07:37:39.194Z,95.71
2022-11-05T07:38:39.205Z,95.97
2022-11-05T07:39:39.174Z,95.09
2022-11-05T07:40:39.478Z,95.20
2022-11-05T07:41:39.158Z,94.43
2022-11-05T07:42:39.229Z,94.33
2022-11-05T07:43:39.154Z,93.82
2022-11-05T07:44:39.131Z,93.92
2022-11-05T07:45:39.111Z,92.95
2022-11-05T07:46:39.091Z,92.54
2022-11-05T07:47:39.092Z,92.74
2022-11-05T07:48:39.086Z,92.03
2022-11-05T07:49:39.064Z,91.61
2022-11-05T07:50:39.055Z,91.00
2022-11-05T07:51:39.050Z,91.00
2022-11-05T07:52:39.024Z,90.85
2022-11-05T07:53:44.080Z,90.38
2022-11-05T07:54:40.013Z,91.10
2022-11-05T07:55:38.991Z,90.75
2022-11-05T07:56:39.006Z,90.95
2022-11-05T07:57:38.978Z,90.95
2022-11-05T07:58:38.978Z,90.24
2022-11-05T07:59:38.955Z,90.85
2022-11-05T08:00:39.180Z,91.06
2022-11-05T08:01:39.278Z,91.94
2022-11-05T08:02:39.228Z,91.33
2022-11-05T08:03:39.049Z,91.06
2022-11-05T08:04:38.934Z,90.30
2022-11-05T08:05:38.907Z,90.34
2022-11-05T08:06:38.954Z,89.62
2022-11-05T08:07:38.855Z,90.14
2022-11-05T08:08:38.850Z,90.28
2022-11-05T08:09:38.855Z,89.83
2022-11-05T08:10:38.823Z,90.48
2022-11-05T08:11:38.818Z,90.08
2022-11-05T08:12:38.839Z,89.87
2022-11-05T08:13:38.797Z,90.28
2022-11-05T08:14:38.794Z,90.18
2022-11-05T08:15:38.774Z,90.08
2022-11-05T08:16:38.754Z,89.76
2022-11-05T08:17:38.742Z,90.12
2022-11-05T08:18:38.813Z,90.63
2022-11-05T08:19:38.758Z,91.00
2022-11-05T08:20:38.711Z,90.80
2022-11-05T08:21:38.708Z,91.31
2022-11-05T08:22:38.691Z,91.20
2022-11-05T08:23:38.674Z,91.00
2022-11-05T08:24:38.861Z,91.04
2022-11-05T08:25:38.652Z,91.41
2022-11-05T08:26:38.646Z,91.04
2022-11-05T08:27:38.652Z,91.41
2022-11-05T08:28:38.752Z,91.00
2022-11-05T08:29:38.617Z,91.25
2022-11-05T08:30:38.601Z,91.20
2022-11-05T08:31:38.596Z,90.89
2022-11-05T08:32:38.579Z,91.00
2022-11-05T08:33:38.571Z,91.20
2022-11-05T08:34:38.578Z,91.10
2022-11-05T08:35:38.555Z,91.14
2022-11-05T08:36:38.533Z,90.59
2022-11-05T08:37:38.516Z,91.35
2022-11-05T08:38:38.514Z,91.35
2022-11-05T08:39:38.508Z,91.31
2022-11-05T08:40:38.502Z,91.20
2022-11-05T08:41:38.470Z,91.20
2022-11-05T08:42:38.464Z,91.10
2022-11-05T08:43:38.449Z,91.10
2022-11-05T08:44:38.586Z,91.31
2022-11-05T08:45:38.682Z,90.80
2022-11-05T08:46:41.590Z,91.20
2022-11-05T08:47:38.408Z,91.00
2022-11-05T08:48:38.396Z,91.31
2022-11-05T08:49:38.407Z,90.75
2022-11-05T08:50:38.381Z,90.48
2022-11-05T08:51:38.365Z,90.80
2022-11-05T08:52:38.354Z,90.80
2022-11-05T08:53:38.353Z,90.95
2022-11-05T08:54:38.324Z,91.16
2022-11-05T08:55:38.329Z,91.16
2022-11-05T08:56:38.321Z,90.95
2022-11-05T08:57:38.296Z,91.27
2022-11-05T08:58:38.279Z,91.27
2022-11-05T08:59:38.331Z,91.16
2022-11-05T09:00:38.290Z,91.22
2022-11-05T09:01:38.428Z,91.27
2022-11-05T09:02:38.320Z,90.61
2022-11-05T09:03:38.221Z,90.50
2022-11-05T09:04:38.215Z,91.02
2022-11-05T09:05:38.261Z,90.20
2022-11-05T09:06:38.187Z,90.61
2022-11-05T09:07:38.182Z,90.91
2022-11-05T09:08:38.166Z,90.97
2022-11-05T09:09:38.155Z,90.16
2022-11-05T09:10:38.171Z,90.05
2022-11-05T09:12:10.072Z,89.84
2022-11-05T09:12:39.125Z,89.33
2022-11-05T09:13:38.121Z,89.19
2022-11-05T09:14:38.108Z,90.05
2022-11-05T09:15:38.101Z,90.01
2022-11-05T09:16:38.101Z,89.15
2022-11-05T09:17:38.071Z,89.04
2022-11-05T09:18:38.067Z,88.94
2022-11-05T09:19:39.959Z,88.33
2022-11-05T09:20:38.053Z,88.23
2022-11-05T09:21:38.031Z,88.64
2022-11-05T09:22:43.051Z,88.39
2022-11-05T09:23:39.024Z,88.49
2022-11-05T09:24:37.999Z,87.06
2022-11-05T09:25:38.027Z,87.22
2022-11-05T09:26:37.969Z,87.12
2022-11-05T09:27:37.953Z,87.32
2022-11-05T09:28:37.938Z,86.57
2022-11-05T09:29:37.936Z,85.75
2022-11-05T09:30:37.920Z,85.61
2022-11-05T09:31:37.927Z,85.61
2022-11-05T09:32:37.921Z,85.81
2022-11-05T09:33:37.887Z,85.06
2022-11-05T09:34:37.880Z,85.06
2022-11-05T09:35:37.877Z,85.02
2022-11-05T09:36:37.860Z,83.75
2022-11-05T09:37:37.916Z,83.44
2022-11-05T09:38:37.838Z,83.10
2022-11-05T09:39:37.836Z,82.49
2022-11-05T09:40:37.806Z,81.53
2022-11-05T09:41:37.816Z,80.51
2022-11-05T09:42:37.801Z,80.98
2022-11-05T09:43:37.779Z,81.49
2022-11-05T09:44:37.771Z,80.02
2022-11-05T09:45:37.752Z,80.09
2022-11-05T09:46:37.759Z,79.38
2022-11-05T09:47:37.749Z,78.32
2022-11-05T09:48:37.737Z,77.30
2022-11-05T09:49:37.708Z,77.30
2022-11-05T09:50:37.691Z,76.86
2022-11-05T09:51:37.706Z,76.96
2022-11-05T09:52:37.676Z,76.86
2022-11-05T09:53:37.671Z,76.04
2022-11-05T09:54:37.648Z,75.98
2022-11-05T09:55:37.645Z,75.26
2022-11-05T09:56:37.641Z,73.70
2022-11-05T09:57:37.628Z,73.33
2022-11-05T09:58:37.606Z,72.38
2022-11-05T09:59:37.593Z,73.80
2022-11-05T10:00:37.587Z,72.99
2022-11-05T10:01:37.855Z,73.02
2022-11-05T10:02:37.736Z,72.38
2022-11-05T10:03:37.563Z,73.39
2022-11-05T10:04:37.718Z,73.26
2022-11-05T10:05:37.626Z,73.46
2022-11-05T10:06:37.535Z,73.77
2022-11-05T10:07:37.508Z,74.95
2022-11-05T10:08:37.495Z,72.11
2022-11-05T10:09:37.494Z,72.11
2022-11-05T10:10:40.920Z,71.40
2022-11-05T10:11:37.475Z,71.40
2022-11-05T10:12:37.457Z,72.11
2022-11-05T10:13:37.433Z,71.80
2022-11-05T10:14:37.440Z,71.30
2022-11-05T10:15:37.419Z,71.50
2022-11-05T10:16:37.462Z,71.09
2022-11-05T10:17:39.213Z,71.91
2022-11-05T10:18:37.384Z,71.26
2022-11-05T10:19:37.368Z,70.86
2022-11-05T10:20:37.485Z,70.72
2022-11-05T10:22:04.923Z,70.11
2022-11-05T10:22:38.335Z,70.15
2022-11-05T10:23:37.325Z,69.74
2022-11-05T10:24:37.314Z,68.63
2022-11-05T10:25:37.308Z,69.71
2022-11-05T10:26:37.315Z,69.57
2022-11-05T10:27:37.280Z,68.94
2022-11-05T10:28:37.275Z,68.50
2022-11-05T10:29:37.268Z,68.37
2022-11-05T10:30:37.245Z,66.52
2022-11-05T10:31:37.249Z,64.90
2022-11-05T10:32:37.232Z,64.83
2022-11-05T10:33:37.211Z,65.43
2022-11-05T10:34:37.198Z,64.83
2022-11-05T10:35:37.196Z,66.44
2022-11-05T10:36:37.306Z,64.42
2022-11-05T10:37:40.806Z,64.62
2022-11-05T10:38:37.154Z,65.36
2022-11-05T10:39:37.146Z,65.19
2022-11-05T10:40:37.161Z,66.16
2022-11-05T10:41:37.121Z,66.19
2022-11-05T10:42:37.135Z,66.50
2022-11-05T10:43:37.102Z,67.21
2022-11-05T10:44:37.087Z,66.91
2022-11-05T10:45:37.081Z,67.38
2022-11-05T10:46:37.078Z,66.97
2022-11-05T10:47:37.078Z,66.77
2022-11-05T10:48:43.304Z,66.09
2022-11-05T10:49:38.041Z,67.24
2022-11-05T10:50:37.041Z,67.95
2022-11-05T10:51:37.013Z,67.30
2022-11-05T10:52:37.039Z,68.52
2022-11-05T10:53:36.990Z,68.66
2022-11-05T10:54:36.977Z,68.55
2022-11-05T10:55:36.973Z,69.47
2022-11-05T10:56:36.961Z,68.96
2022-11-05T10:57:36.972Z,69.81
2022-11-05T10:58:36.930Z,70.01
2022-11-05T10:59:36.924Z,69.91
2022-11-05T11:00:36.916Z,69.98
2022-11-05T11:01:37.012Z,70.38
2022-11-05T11:02:36.947Z,70.76
2022-11-05T11:03:36.888Z,68.79
2022-11-05T11:04:38.246Z,67.85
2022-11-05T11:05:36.861Z,67.03
2022-11-05T11:06:36.841Z,66.33
2022-11-05T11:07:36.848Z,66.02
2022-11-05T11:08:36.845Z,67.11
2022-11-05T11:09:36.804Z,67.31
2022-11-05T11:10:36.806Z,66.88
2022-11-05T11:11:36.783Z,66.54
2022-11-05T11:12:40.678Z,66.10
2022-11-05T11:13:36.762Z,64.96
2022-11-05T11:14:36.750Z,63.92
2022-11-05T11:15:36.748Z,64.19
2022-11-05T11:16:36.728Z,64.49
2022-11-05T11:17:36.731Z,62.54
2022-11-05T11:18:40.043Z,63.05
2022-11-05T11:19:36.700Z,62.62
2022-11-05T11:20:36.685Z,62.59
2022-11-05T11:21:36.683Z,60.26
2022-11-05T11:22:36.691Z,60.57
2022-11-05T11:23:36.664Z,60.80
2022-11-05T11:24:36.664Z,61.30
2022-11-05T11:25:36.624Z,61.57
2022-11-05T11:26:36.612Z,61.24
2022-11-05T11:27:36.628Z,60.10
2022-11-05T11:28:36.593Z,60.28
2022-11-05T11:29:36.579Z,61.08
2022-11-05T11:30:36.571Z,57.63
2022-11-05T11:31:36.566Z,57.32
2022-11-05T11:32:36.547Z,58.16
2022-11-05T11:33:36.557Z,57.65
2022-11-05T11:34:36.526Z,57.58
2022-11-05T11:35:36.523Z,58.04
2022-11-05T11:36:36.509Z,58.14
2022-11-05T11:37:36.520Z,57.87
2022-11-05T11:38:36.500Z,57.69
2022-11-05T11:39:36.469Z,59.64
2022-11-05T11:40:36.587Z,60.25
2022-11-05T11:41:36.457Z,59.74
2022-11-05T11:42:36.439Z,60.05
2022-11-05T11:43:36.443Z,59.97
2022-11-05T11:44:36.420Z,60.50
2022-11-05T11:45:36.400Z,61.44
2022-11-05T11:46:36.398Z,62.49
2022-11-05T11:47:36.383Z,62.72
2022-11-05T11:48:36.392Z,63.35
2022-11-05T11:49:36.358Z,63.43
2022-11-05T11:50:36.347Z,64.47
2022-11-05T11:51:36.349Z,64.67
2022-11-05T11:52:36.333Z,64.40
2022-11-05T11:53:36.339Z,64.30
2022-11-05T11:54:36.308Z,65.21
2022-11-05T11:55:36.297Z,65.08
2022-11-05T11:56:36.299Z,65.01
2022-11-05T11:57:36.265Z,65.01
2022-11-05T11:58:36.269Z,64.70
2022-11-05T12:00:06.628Z,65.04
2022-11-05T12:00:37.241Z,66.23
2022-11-05T12:01:36.294Z,65.62
2022-11-05T12:02:36.275Z,64.98
2022-11-05T12:03:36.221Z,64.07
2022-11-05T12:04:36.197Z,64.47
2022-11-05T12:05:36.177Z,64.54
2022-11-05T12:06:36.167Z,63.12
2022-11-05T12:07:36.155Z,62.52
2022-11-05T12:08:36.161Z,62.82
2022-11-05T12:09:36.150Z,61.80
2022-11-05T12:10:36.133Z,61.51
2022-11-05T12:11:36.117Z,61.91
2022-11-05T12:12:36.123Z,62.21
2022-11-05T12:13:36.112Z,62.11
2022-11-05T12:14:36.089Z,62.85
2022-11-05T12:15:36.069Z,62.95
2022-11-05T12:16:36.059Z,63.86
2022-11-05T12:17:36.044Z,63.32
2022-11-05T12:18:36.061Z,62.85
2022-11-05T12:19:36.033Z,63.46
2022-11-05T12:20:36.013Z,63.69
2022-11-05T12:21:52.163Z,64.10
2022-11-05T12:22:37.006Z,64.53
2022-11-05T12:23:35.998Z,64.84
2022-11-05T12:24:36.013Z,64.84
2022-11-05T12:25:35.961Z,65.11
2022-11-05T12:26:35.955Z,65.04
2022-11-05T12:27:35.936Z,65.31
2022-11-05T12:28:36.339Z,65.01
2022-11-05T12:29:36.259Z,65.01
2022-11-05T12:30:35.909Z,65.01
2022-11-05T12:31:35.899Z,65.31
2022-11-05T12:32:35.944Z,64.94
2022-11-05T12:33:35.890Z,65.75
2022-11-05T12:34:35.859Z,65.65
2022-11-05T12:35:35.845Z,65.65
2022-11-05T12:36:35.834Z,65.24
2022-11-05T12:37:35.828Z,65.95
2022-11-05T12:38:35.830Z,66.29
2022-11-05T12:39:35.802Z,66.08
2022-11-05T12:40:35.801Z,65.78
2022-11-05T12:41:35.784Z,64.76
2022-11-05T12:42:35.766Z,65.07
2022-11-05T12:43:36.530Z,66.12
2022-11-05T12:44:35.766Z,66.63
2022-11-05T12:45:35.735Z,66.32
2022-11-05T12:46:35.725Z,65.91
2022-11-05T12:47:35.711Z,64.90
2022-11-05T12:48:37.301Z,64.90
2022-11-05T12:49:35.696Z,65.91
2022-11-05T12:50:35.690Z,66.32
2022-11-05T12:51:35.680Z,66.22
2022-11-05T12:52:35.674Z,66.66